TimeAEST,TemperatureF,Dew PointF,Humidity,Sea Level PressureIn,VisibilityMPH,Wind Direction,Wind SpeedMPH,Gust SpeedMPH,PrecipitationIn,Events,Conditions,WindDirDegrees,DateUTC
12:00 AM,72,65,74,30.02,,South,11.5,,,,Overcast,180,2013-05-17 14:00:00
12:00 AM,71.6,66.2,83,30.01,6.2,South,11.5,-,N/A,,Mostly Cloudy,180,2013-05-17 14:00:00
12:30 AM,73.4,66.2,78,30.01,6.2,SSE,11.5,-,N/A,,Mostly Cloudy,160,2013-05-17 14:30:00
1:00 AM,72,65,74,30.01,,SSE,15.0,,,,,160,2013-05-17 15:00:00
1:00 AM,71.6,66.2,83,30.01,6.2,SSE,15.0,-,N/A,,Mostly Cloudy,160,2013-05-17 15:00:00
1:30 AM,71.6,66.2,83,29.98,6.2,South,10.4,-,N/A,,Mostly Cloudy,170,2013-05-17 15:30:00
2:00 AM,71.6,66.2,83,29.98,6.2,South,11.5,-,N/A,,Mostly Cloudy,170,2013-05-17 16:00:00
2:30 AM,71.6,66.2,83,29.95,6.2,SSE,11.5,-,N/A,,Mostly Cloudy,160,2013-05-17 16:30:00
3:00 AM,72,66,75,29.96,,SSE,11.5,,,,Overcast,160,2013-05-17 17:00:00
3:00 AM,71.6,66.2,83,29.95,6.2,SSE,11.5,-,N/A,,Overcast,160,2013-05-17 17:00:00
3:30 AM,71.6,66.2,83,29.95,6.2,SSE,9.2,-,N/A,,Overcast,160,2013-05-17 17:30:00
4:00 AM,72,66,75,29.96,,SSE,9.2,,,,,160,2013-05-17 18:00:00
4:00 AM,71.6,66.2,83,29.95,6.2,SSE,9.2,-,N/A,,Mostly Cloudy,160,2013-05-17 18:00:00
5:00 AM,71.6,66.2,83,29.95,6.2,South,9.2,-,N/A,,Partly Cloudy,170,2013-05-17 19:00:00
5:30 AM,73.4,66.2,78,29.95,6.2,South,9.2,-,N/A,,Partly Cloudy,170,2013-05-17 19:30:00
6:00 AM,72,66,75,29.97,19,South,10.4,,,,Partly Cloudy,180,2013-05-17 20:00:00
6:00 AM,71.6,66.2,83,29.95,6.2,South,10.4,-,N/A,,Mostly Cloudy,170,2013-05-17 20:00:00
6:30 AM,73.4,66.2,78,29.95,6.2,SSE,10.4,-,N/A,,Mostly Cloudy,160,2013-05-17 20:30:00
7:00 AM,73,66,73,29.99,,SSE,8.1,,,,,150,2013-05-17 21:00:00
7:00 AM,73.4,66.2,78,29.98,6.2,SSE,8.1,-,N/A,,Mostly Cloudy,150,2013-05-17 21:00:00
7:30 AM,73.4,66.2,78,29.98,6.2,SSE,8.1,-,N/A,,Mostly Cloudy,150,2013-05-17 21:30:00
8:00 AM,75.2,66.2,73,30.01,6.2,South,8.1,-,N/A,,Mostly Cloudy,170,2013-05-17 22:00:00
8:30 AM,75.2,66.2,73,30.01,6.2,SSE,8.1,-,N/A,,Mostly Cloudy,160,2013-05-17 22:30:00
9:00 AM,76,67,67,30.02,19,SSE,9.2,,,,Partly Cloudy,160,2013-05-17 23:00:00
9:00 AM,75.2,68.0,78,30.01,6.2,SSE,9.2,-,N/A,,Mostly Cloudy,160,2013-05-17 23:00:00
9:30 AM,75.2,68.0,78,30.01,6.2,South,9.2,-,N/A,,Mostly Cloudy,170,2013-05-17 23:30:00
10:00 AM,76,68,69,30.03,,South,8.1,,,,,170,2013-05-18 00:00:00
10:00 AM,77.0,68.0,74,30.01,6.2,South,8.1,-,N/A,,Mostly Cloudy,170,2013-05-18 00:00:00
10:30 AM,77.0,68.0,74,30.01,6.2,SSE,9.2,-,N/A,,Mostly Cloudy,150,2013-05-18 00:30:00
11:00 AM,77.0,69.8,78,30.01,6.2,South,8.1,-,N/A,,Mostly Cloudy,170,2013-05-18 01:00:00
11:30 AM,80.6,69.8,70,30.01,6.2,South,6.9,-,N/A,,Scattered Clouds,170,2013-05-18 01:30:00
12:00 PM,82,70,59,29.99,19,SSE,5.8,,,,Partly Cloudy,160,2013-05-18 02:00:00
12:00 PM,82.4,69.8,66,29.98,6.2,SSE,5.8,-,N/A,,Scattered Clouds,160,2013-05-18 02:00:00
12:30 PM,82.4,69.8,66,29.95,6.2,SE,5.8,-,N/A,,Scattered Clouds,140,2013-05-18 02:30:00
1:00 PM,83,70,57,29.96,,ESE,4.6,,,,,110,2013-05-18 03:00:00
1:00 PM,82.4,69.8,66,29.95,6.2,ESE,4.6,-,N/A,,Scattered Clouds,110,2013-05-18 03:00:00
1:30 PM,82.4,71.6,70,29.95,6.2,NE,9.2,-,N/A,,Scattered Clouds,50,2013-05-18 03:30:00
2:00 PM,84.2,71.6,66,29.92,6.2,NE,8.1,-,N/A,,Mostly Cloudy,50,2013-05-18 04:00:00
2:30 PM,80.6,71.6,74,29.92,6.2,East,6.9,-,N/A,,Mostly Cloudy,90,2013-05-18 04:30:00
3:00 PM,81,71,65,29.92,19,ENE,9.2,,,,Partly Cloudy,60,2013-05-18 05:00:00
3:00 PM,80.6,71.6,74,29.92,6.2,ENE,9.2,-,N/A,,Mostly Cloudy,60,2013-05-18 05:00:00
3:30 PM,80.6,71.6,74,29.92,6.2,ENE,10.4,-,N/A,,Mostly Cloudy,70,2013-05-18 05:30:00
4:00 PM,80,71,69,29.93,,ENE,8.1,,,,,70,2013-05-18 06:00:00
4:00 PM,80.6,71.6,74,29.92,6.2,ENE,8.1,-,N/A,,Mostly Cloudy,70,2013-05-18 06:00:00
4:30 PM,80.6,71.6,74,29.92,6.2,NE,4.6,-,N/A,,Mostly Cloudy,50,2013-05-18 06:30:00
5:00 PM,80.6,71.6,74,29.92,6.2,SSE,5.8,-,N/A,,Mostly Cloudy,160,2013-05-18 07:00:00
5:30 PM,78.8,71.6,78,29.92,6.2,South,6.9,-,N/A,,Mostly Cloudy,170,2013-05-18 07:30:00
6:00 PM,78,70,71,29.95,,South,5.8,,,,Overcast,190,2013-05-18 08:00:00
6:00 PM,77.0,69.8,78,29.95,6.2,South,5.8,-,N/A,,Mostly Cloudy,190,2013-05-18 08:00:00
6:30 PM,77.0,71.6,83,29.95,6.2,South,6.9,-,N/A,,Mostly Cloudy,170,2013-05-18 08:30:00
7:00 PM,76,71,80,29.98,,South,5.8,,,,,170,2013-05-18 09:00:00
7:00 PM,77.0,71.6,83,29.98,6.2,South,5.8,-,N/A,,Light Drizzle,170,2013-05-18 09:00:00
7:30 PM,75.2,71.6,89,29.98,6.2,South,8.1,-,N/A,Rain,Light Rain Showers,170,2013-05-18 09:30:00
8:00 PM,77.0,69.8,78,29.98,6.2,South,8.1,-,N/A,,Mostly Cloudy,170,2013-05-18 10:00:00
8:30 PM,75.2,71.6,89,30.01,6.2,South,8.1,-,N/A,,Mostly Cloudy,180,2013-05-18 10:30:00
9:00 PM,75,71,83,30.01,,South,10.4,,,,,180,2013-05-18 11:00:00
9:00 PM,75.2,71.6,89,30.01,6.2,South,10.4,-,N/A,,Mostly Cloudy,180,2013-05-18 11:00:00
9:30 PM,75.2,69.8,83,30.01,6.2,South,9.2,-,N/A,,Overcast,180,2013-05-18 11:30:00
10:00 PM,74,71,86,30.02,,South,8.1,,,,,170,2013-05-18 12:00:00
10:00 PM,75.2,71.6,89,30.01,6.2,South,8.1,-,N/A,Rain,Light Rain,170,2013-05-18 12:00:00
10:30 PM,73.4,71.6,94,30.01,6.2,SSE,10.4,-,N/A,Rain,Light Rain Showers,160,2013-05-18 12:30:00
11:00 PM,73.4,71.6,94,30.01,6.2,SSE,10.4,-,N/A,,Overcast,160,2013-05-18 13:00:00
11:30 PM,73.4,71.6,94,30.01,6.2,South,8.1,-,N/A,Rain,Light Rain Showers,170,2013-05-18 13:30:00